Orbital elements of FENGYUN 1C DEB
| Launched | 9 May 1999 |
| Flight ended | – |
| Launch site | Taiyuan Space Center, PRC |
| Owner | People's Republic of China |
| NORAD ID | 29854 |
| Date fetched |
Epoch osculation |
Inc. [°] |
Ecc. | RA asc node [hr] |
Arg Peri. [°] |
Mean anom [°] |
Mean motion [rev/day] |
Abs. mag |
| Date fetched |
Epoch osculation |
Inc. [°] |
Ecc. | RA asc node [hr] |
Arg Peri. [°] |
Mean anom [°] |
Mean motion [rev/day] |
Abs. mag |
| 2026 May 05 17:57 | 2026 May 05 09:45:57 | 98.9477 | 0.01465 | 18.9626 | 24.1228 | 4.2952 | 13.83475 | – |
| 2026 May 04 17:57 | 2026 Apr 30 10:07:38 | 98.9469 | 0.01468 | 18.6464 | 37.5114 | 4.2952 | 13.83475 | – |
| 2026 May 03 17:57 | 2026 Apr 30 10:07:38 | 98.9469 | 0.01468 | 18.6464 | 37.5114 | 4.2952 | 13.83475 | – |
| 2026 May 02 17:57 | 2026 Apr 30 10:07:38 | 98.9469 | 0.01468 | 18.6464 | 37.5114 | 4.2952 | 13.83475 | – |
| 2026 May 01 17:56 | 2026 Apr 30 10:07:38 | 98.9469 | 0.01468 | 18.6464 | 37.5114 | 4.2952 | 13.83475 | – |
| 2026 Apr 30 17:56 | 2026 Apr 30 10:07:38 | 98.9469 | 0.01468 | 18.6464 | 37.5114 | 4.2952 | 13.83475 | – |
| 2026 Apr 29 17:57 | 2026 Apr 24 05:27:02 | 98.9461 | 0.01470 | 18.2534 | 54.1332 | 4.2952 | 13.83475 | – |
| 2026 Apr 28 17:56 | 2026 Apr 24 05:27:02 | 98.9461 | 0.01470 | 18.2534 | 54.1332 | 4.2952 | 13.83475 | – |
| 2026 Apr 27 17:58 | 2026 Apr 24 05:27:02 | 98.9461 | 0.01470 | 18.2534 | 54.1332 | 4.2952 | 13.83475 | – |
| 2026 Apr 26 17:58 | 2026 Apr 24 05:27:02 | 98.9461 | 0.01470 | 18.2534 | 54.1332 | 4.2952 | 13.83475 | – |
| 2026 Apr 25 17:58 | 2026 Apr 24 05:27:02 | 98.9461 | 0.01470 | 18.2534 | 54.1332 | 4.2952 | 13.83475 | – |
| 2026 Apr 24 17:59 | 2026 Apr 24 05:27:02 | 98.9461 | 0.01470 | 18.2534 | 54.1332 | 4.2952 | 13.83475 | – |
| 2026 Apr 23 17:57 | 2026 Apr 19 05:41:23 | 98.9453 | 0.01472 | 17.9369 | 67.5084 | 4.2952 | 13.83475 | – |
| 2026 Apr 22 17:57 | 2026 Apr 19 05:41:23 | 98.9453 | 0.01472 | 17.9369 | 67.5084 | 4.2952 | 13.83475 | – |
| 2026 Apr 21 17:57 | 2026 Apr 19 05:41:23 | 98.9453 | 0.01472 | 17.9369 | 67.5084 | 4.2952 | 13.83475 | – |
| 2026 Apr 20 17:57 | 2026 Apr 19 05:41:23 | 98.9453 | 0.01472 | 17.9369 | 67.5084 | 4.2952 | 13.83475 | – |
| 2026 Apr 19 17:58 | 2026 Apr 19 05:41:23 | 98.9453 | 0.01472 | 17.9369 | 67.5084 | 4.2952 | 13.83475 | – |
| 2026 Apr 18 17:56 | 2026 Apr 13 05:37:10 | 98.9444 | 0.01474 | 17.5561 | 83.5781 | 4.2952 | 13.83475 | – |
| 2026 Apr 16 17:57 | 2026 Apr 13 05:37:10 | 98.9444 | 0.01474 | 17.5561 | 83.5781 | 4.2952 | 13.83475 | – |
| 2026 Apr 14 17:57 | 2026 Apr 13 05:37:10 | 98.9444 | 0.01474 | 17.5561 | 83.5781 | 4.2952 | 13.83475 | – |
| 2026 Apr 13 17:57 | 2026 Apr 13 05:37:10 | 98.9444 | 0.01474 | 17.5561 | 83.5781 | 4.2952 | 13.83475 | – |
| 2026 Apr 12 17:57 | 2026 Apr 08 10:20:27 | 98.9435 | 0.01475 | 17.2515 | 96.4297 | 4.2952 | 13.83475 | – |
| 2026 Apr 11 17:57 | 2026 Apr 08 10:20:27 | 98.9435 | 0.01475 | 17.2515 | 96.4297 | 4.2952 | 13.83475 | – |
| 2026 Apr 10 17:58 | 2026 Apr 08 10:20:27 | 98.9435 | 0.01475 | 17.2515 | 96.4297 | 4.2952 | 13.83475 | – |
| 2026 Apr 09 18:01 | 2026 Apr 08 10:20:27 | 98.9435 | 0.01475 | 17.2515 | 96.4297 | 4.2952 | 13.83475 | – |
| 2026 Apr 08 17:57 | 2026 Apr 08 10:20:27 | 98.9435 | 0.01475 | 17.2515 | 96.4297 | 4.2952 | 13.83475 | – |